Time;durP1;ratioP1;P1;durP2;ratioP2;P2;SDS_P1;SDS_P2;PMS_P1;PMS_P2;Temp;Humidity;BMP_temperature;BMP_pressure;BME280_temperature;BME280_humidity;BME280_pressure;Samples;Min_cycle;Max_cycle;Signal;HPM_P1;HPM_P2
2023/06/23 00:03:16;;;;;;;8.30;4.90;;;;;;;18.28;56.92;99381.89;436251;1251;139229;-60
2023/06/23 00:13:19;;;;;;;6.70;4.70;;;;;;;18.45;56.73;99365.56;436284;1251;139796;-60
2023/06/23 00:23:22;;;;;;;10.20;5.80;;;;;;;18.58;56.62;99376.12;436516;1251;139169;-60
2023/06/23 00:33:25;;;;;;;5.20;4.30;;;;;;;18.70;56.20;99354.83;436404;1254;138388;-61
2023/06/23 00:43:30;;;;;;;5.70;4.90;;;;;;;18.77;55.91;99327.93;436401;1251;139228;-61
2023/06/23 00:53:34;;;;;;;4.90;4.40;;;;;;;18.85;55.69;99320.42;436751;1251;138243;-61
2023/06/23 01:03:38;;;;;;;5.40;4.60;;;;;;;19.06;55.27;99309.20;436423;1251;140250;-60
2023/06/23 01:13:48;;;;;;;6.80;4.60;;;;;;;19.32;55.07;99297.68;436292;1254;139290;-60
2023/06/23 01:24:05;;;;;;;6.80;4.70;;;;;;;19.51;54.98;99301.65;436827;1251;138517;-60
2023/06/23 01:34:10;;;;;;;8.00;4.50;;;;;;;19.61;54.93;99291.95;436703;1251;138299;-60
2023/06/23 01:44:16;;;;;;;5.70;4.90;;;;;;;19.63;54.96;99283.26;436515;1251;138661;-62
2023/06/23 01:54:20;;;;;;;6.20;4.50;;;;;;;19.66;55.22;99262.27;436377;1251;139785;-60
2023/06/23 02:04:24;;;;;;;7.00;5.50;;;;;;;19.68;55.26;99240.98;436378;1254;138882;-61
2023/06/23 02:14:29;;;;;;;6.60;5.20;;;;;;;19.68;55.68;99239.35;436412;1251;138322;-60
2023/06/23 02:24:34;;;;;;;5.30;4.30;;;;;;;19.66;56.24;99235.63;436342;1254;139235;-60
2023/06/23 02:34:37;;;;;;;5.20;4.70;;;;;;;19.73;56.53;99241.13;436528;1251;139163;-60
2023/06/23 02:44:49;;;;;;;6.50;4.70;;;;;;;19.83;56.43;99249.81;436326;1251;138821;-60
2023/06/23 02:54:56;;;;;;;6.70;4.60;;;;;;;19.87;56.46;99243.45;436657;1253;139683;-60
2023/06/23 03:04:59;;;;;;;5.80;5.20;;;;;;;19.89;56.32;99234.06;436390;1254;139235;-62
2023/06/23 03:15:03;;;;;;;5.80;5.00;;;;;;;19.87;56.44;99254.21;436606;1254;138323;-60
2023/06/23 03:25:12;;;;;;;6.30;5.50;;;;;;;19.83;56.52;99261.94;436516;1251;139863;-60
2023/06/23 03:35:18;;;;;;;8.60;5.40;;;;;;;19.90;56.72;99248.36;436761;1251;139368;-59
2023/06/23 03:45:24;;;;;;;8.70;5.70;;;;;;;20.26;56.58;99224.92;436356;1253;139883;-60
2023/06/23 03:55:31;;;;;;;5.60;5.00;;;;;;;20.77;55.94;99217.28;436445;1254;138939;-59
2023/06/23 04:05:37;;;;;;;5.70;5.20;;;;;;;21.11;55.05;99249.30;436703;1251;138636;-59
2023/06/23 04:15:41;;;;;;;4.70;4.20;;;;;;;20.86;55.30;99239.75;436327;1250;139844;-60
2023/06/23 04:25:48;;;;;;;6.70;6.10;;;;;;;20.64;55.71;99191.23;437042;1251;139834;-59
2023/06/23 04:35:59;;;;;;;6.60;4.90;;;;;;;20.51;56.14;99236.02;436427;1254;138990;-60
2023/06/23 04:46:11;;;;;;;8.10;6.40;;;;;;;20.34;56.68;99236.88;436302;1254;139606;-60
2023/06/23 04:56:20;;;;;;;6.90;6.00;;;;;;;20.12;57.53;99194.11;436238;1254;139190;-61
2023/06/23 05:06:24;;;;;;;9.00;6.00;;;;;;;19.93;58.22;99212.36;436701;1254;138852;-60
2023/06/23 05:16:28;;;;;;;10.00;5.70;;;;;;;19.80;58.98;99262.53;437174;1251;138251;-61
2023/06/23 05:26:34;;;;;;;10.70;7.00;;;;;;;19.69;59.33;99376.86;436996;1254;139188;-60
2023/06/23 05:36:38;;;;;;;6.70;5.50;;;;;;;19.73;58.86;99295.09;437080;1254;140899;-60
2023/06/23 05:46:45;;;;;;;6.90;5.20;;;;;;;19.81;59.23;99179.52;436605;1251;139076;-59
2023/06/23 05:56:53;;;;;;;8.80;6.80;;;;;;;19.59;60.65;99098.63;436200;1250;138683;-60
2023/06/23 06:06:58;;;;;;;6.60;5.90;;;;;;;19.11;63.89;98969.40;436525;1250;140441;-60
2023/06/23 06:17:02;;;;;;;6.90;4.80;;;;;;;18.71;68.07;98868.84;436825;1250;139253;-61
2023/06/23 06:27:08;;;;;;;7.70;5.30;;;;;;;18.42;70.82;98969.23;436540;1254;140123;-61
2023/06/23 06:37:12;;;;;;;7.10;6.40;;;;;;;18.26;72.35;99022.30;436816;1251;141251;-61
2023/06/23 06:47:17;;;;;;;8.20;7.40;;;;;;;18.08;74.27;99044.33;436532;1251;139855;-60
2023/06/23 06:57:21;;;;;;;7.00;6.30;;;;;;;18.02;75.85;99047.48;436153;1254;139490;-60
2023/06/23 07:07:23;;;;;;;8.30;6.70;;;;;;;17.92;77.14;99053.92;436410;1251;141343;-61
2023/06/23 07:17:27;;;;;;;7.80;7.00;;;;;;;17.85;78.20;99091.55;436406;1251;139796;-60
2023/06/23 07:27:30;;;;;;;8.30;6.20;;;;;;;17.83;78.83;99108.16;436155;1250;157455;-60
2023/06/23 07:37:33;;;;;;;8.00;5.30;;;;;;;17.77;79.50;99115.31;436286;1251;139480;-62
2023/06/23 07:47:36;;;;;;;8.40;7.00;;;;;;;17.80;79.92;99138.94;436628;1251;139808;-61
2023/06/23 07:57:40;;;;;;;7.00;6.30;;;;;;;17.86;80.26;99123.05;436142;1251;140214;-61
2023/06/23 08:07:44;;;;;;;7.60;6.00;;;;;;;17.97;80.67;99119.99;436319;1254;140105;-61
2023/06/23 08:17:48;;;;;;;7.20;6.40;;;;;;;18.17;81.19;99144.27;436863;1251;140151;-61
2023/06/23 08:27:54;;;;;;;8.50;6.80;;;;;;;18.61;81.15;99142.73;437080;1250;139446;-60
2023/06/23 08:37:59;;;;;;;7.80;5.70;;;;;;;19.16;80.75;99138.70;436516;1254;139664;-60
2023/06/23 08:48:05;;;;;;;7.30;6.50;;;;;;;19.75;79.85;99153.04;436591;1250;139093;-60
2023/06/23 08:58:09;;;;;;;6.30;4.90;;;;;;;20.28;78.81;99160.05;436285;1253;139136;-61
2023/06/23 09:08:14;;;;;;;5.40;4.90;;;;;;;20.68;77.40;99170.27;436275;1253;140404;-61
2023/06/23 09:18:18;;;;;;;5.50;5.00;;;;;;;20.62;76.50;99180.28;436375;1251;139127;-60
2023/06/23 09:28:23;;;;;;;7.10;3.90;;;;;;;21.04;76.09;99181.92;437142;1253;139206;-61
2023/06/23 09:38:27;;;;;;;5.00;3.90;;;;;;;22.26;73.95;99192.52;436711;1253;139942;-60
2023/06/23 09:48:32;;;;;;;6.00;3.70;;;;;;;23.72;70.92;99203.55;436822;1252;141020;-63
2023/06/23 09:58:38;;;;;;;5.40;3.80;;;;;;;24.46;67.94;99218.41;435966;1251;140086;-60
2023/06/23 10:08:41;;;;;;;8.40;4.70;;;;;;;24.92;65.72;99231.92;436910;1253;139216;-60
2023/06/23 10:18:44;;;;;;;7.50;3.90;;;;;;;25.50;63.91;99221.23;436108;1253;139753;-60
2023/06/23 10:28:50;;;;;;;8.40;3.90;;;;;;;26.72;62.14;99213.91;436241;1251;139751;-59
2023/06/23 10:38:56;;;;;;;8.20;4.90;;;;;;;27.80;59.30;99211.23;436650;1253;140217;-60
2023/06/23 10:48:59;;;;;;;5.10;3.70;;;;;;;28.37;57.04;99208.46;436939;1250;140323;-61
2023/06/23 10:59:19;;;;;;;7.80;4.90;;;;;;;28.81;55.24;99215.48;436672;1253;140014;-61
2023/06/23 11:09:45;;;;;;;9.10;5.40;;;;;;;28.54;54.34;99224.84;437442;1253;139831;-61
2023/06/23 11:19:52;;;;;;;9.80;6.30;;;;;;;27.75;55.02;99227.29;436337;1255;139769;-61
2023/06/23 11:30:16;;;;;;;10.90;6.00;;;;;;;27.21;55.85;99226.79;436413;1251;138337;-61
2023/06/23 11:40:22;;;;;;;9.40;6.30;;;;;;;28.06;55.51;99216.68;436405;1251;139147;-60
2023/06/23 11:50:25;;;;;;;11.10;8.30;;;;;;;28.63;54.28;99213.36;436530;1254;139499;-61
2023/06/23 12:00:29;;;;;;;8.80;7.60;;;;;;;28.69;53.80;99200.94;436464;1255;138933;-61
2023/06/23 12:10:37;;;;;;;11.00;7.50;;;;;;;28.86;53.61;99203.91;436479;1252;139103;-61
2023/06/23 12:20:42;;;;;;;10.40;8.60;;;;;;;28.57;53.55;99201.09;436598;1256;140576;-61
2023/06/23 12:30:48;;;;;;;9.30;8.30;;;;;;;28.10;54.03;99199.45;436484;1255;141191;-61
2023/06/23 12:40:53;;;;;;;12.60;9.60;;;;;;;27.74;54.52;99198.06;438940;1250;137601;-61
2023/06/23 12:50:58;;;;;;;9.30;8.60;;;;;;;27.42;55.20;99205.23;441133;1250;139287;-61
2023/06/23 13:01:03;;;;;;;10.50;9.30;;;;;;;26.87;56.28;99219.88;439823;1253;139040;-62
2023/06/23 13:11:06;;;;;;;9.80;8.80;;;;;;;27.31;56.82;99228.94;436750;1250;139417;-61
2023/06/23 13:21:09;;;;;;;6.70;6.00;;;;;;;27.65;55.65;99225.61;436717;1253;138657;-62
2023/06/23 13:31:12;;;;;;;7.30;3.90;;;;;;;27.75;54.25;99223.45;435912;1251;141203;-61
2023/06/23 13:41:15;;;;;;;6.70;4.70;;;;;;;27.77;53.24;99215.02;436465;1256;138320;-62
2023/06/23 13:51:18;;;;;;;8.90;4.50;;;;;;;27.54;53.24;99212.15;436222;1255;139546;-61
2023/06/23 14:01:22;;;;;;;7.20;5.60;;;;;;;27.52;53.26;99213.86;436009;1255;138468;-61
2023/06/23 14:11:25;;;;;;;7.20;5.50;;;;;;;27.26;53.30;99211.09;436325;1256;138399;-62
2023/06/23 14:21:28;;;;;;;7.90;5.50;;;;;;;26.90;54.13;99227.17;436190;1256;140661;-62
2023/06/23 14:31:34;;;;;;;7.90;6.10;;;;;;;26.91;54.16;99239.64;436451;1252;138880;-62
2023/06/23 14:41:39;;;;;;;9.60;7.10;;;;;;;26.94;53.98;99245.84;436790;1254;138567;-61
2023/06/23 14:51:42;;;;;;;7.90;6.40;;;;;;;27.07;53.76;99260.20;436465;1253;138510;-61
2023/06/23 15:01:45;;;;;;;11.00;8.00;;;;;;;27.20;53.27;99281.58;436256;1254;140368;-61
2023/06/23 15:11:49;;;;;;;7.60;6.70;;;;;;;27.09;53.19;99299.79;436462;1256;138603;-61
2023/06/23 15:21:53;;;;;;;9.70;7.40;;;;;;;26.77;53.22;99309.20;436618;1256;140448;-61
2023/06/23 15:31:57;;;;;;;9.40;8.40;;;;;;;26.31;53.72;99306.89;436101;1254;140954;-61
2023/06/23 15:42:00;;;;;;;8.40;7.60;;;;;;;25.87;53.99;99305.54;436409;1254;138380;-61
2023/06/23 15:52:05;;;;;;;8.80;8.00;;;;;;;25.87;54.13;99299.88;436605;1254;141435;-61
2023/06/23 16:02:08;;;;;;;10.10;9.20;;;;;;;25.85;54.20;99294.59;436496;1256;139650;-63
2023/06/23 16:12:11;;;;;;;11.00;9.80;;;;;;;25.67;54.16;99298.82;436512;1254;139159;-60
2023/06/23 16:22:14;;;;;;;11.40;10.30;;;;;;;25.24;54.72;99299.48;436550;1256;140768;-60
2023/06/23 16:32:17;;;;;;;13.80;12.50;;;;;;;24.95;55.72;99290.86;436203;1257;138807;-61
2023/06/23 16:42:20;;;;;;;14.90;13.10;;;;;;;24.51;58.07;99305.14;436285;1254;139734;-61
2023/06/23 16:52:24;;;;;;;15.10;12.90;;;;;;;23.98;60.05;99320.45;436605;1255;138876;-60
2023/06/23 17:02:27;;;;;;;15.40;14.10;;;;;;;23.61;61.43;99314.69;436160;1256;141055;-61
2023/06/23 17:12:32;;;;;;;15.80;14.30;;;;;;;23.44;62.09;99318.55;436263;1253;139688;-61
2023/06/23 17:22:35;;;;;;;16.20;14.60;;;;;;;23.21;62.90;99309.93;436537;1254;139631;-62
2023/06/23 17:32:39;;;;;;;18.60;15.80;;;;;;;23.01;63.58;99313.48;436306;1254;140258;-61
2023/06/23 17:42:42;;;;;;;16.20;14.60;;;;;;;22.80;64.17;99313.51;436316;1254;139439;-61
2023/06/23 17:52:45;;;;;;;15.60;14.00;;;;;;;22.43;65.06;99307.33;436611;1251;139997;-61
2023/06/23 18:02:49;;;;;;;15.00;13.40;;;;;;;21.98;66.05;99290.00;436245;1254;139367;-61
2023/06/23 18:12:52;;;;;;;18.40;15.20;;;;;;;21.54;66.88;99283.70;436777;1251;141196;-62
2023/06/23 18:22:55;;;;;;;16.80;14.40;;;;;;;21.18;68.05;99325.73;436194;1254;140759;-66
2023/06/23 18:32:58;;;;;;;17.60;15.70;;;;;;;20.93;69.19;99331.88;436567;1254;140730;-60
2023/06/23 18:43:01;;;;;;;20.30;15.80;;;;;;;20.70;70.33;99337.05;435659;1254;140907;-61
2023/06/23 18:53:04;;;;;;;17.40;15.60;;;;;;;20.50;71.66;99357.60;436444;1254;139531;-62
2023/06/23 19:03:07;;;;;;;16.60;14.80;;;;;;;20.38;73.15;99392.30;436882;1251;140212;-62
2023/06/23 19:13:10;;;;;;;14.80;13.20;;;;;;;20.31;73.80;99418.46;436924;1251;140100;-61
2023/06/23 19:23:14;;;;;;;11.60;10.40;;;;;;;20.20;73.80;99432.44;436653;1253;140129;-62
2023/06/23 19:33:17;;;;;;;11.10;8.50;;;;;;;20.01;73.88;99447.59;436582;1253;150675;-61
2023/06/23 19:43:20;;;;;;;9.30;8.40;;;;;;;19.86;73.90;99459.27;436341;1253;140018;-62
2023/06/23 19:53:26;;;;;;;9.20;7.40;;;;;;;19.72;74.15;99467.23;436279;1254;140224;-62
2023/06/23 20:03:29;;;;;;;10.90;7.40;;;;;;;19.66;74.75;99459.17;436779;1251;139991;-61
2023/06/23 20:13:32;;;;;;;8.10;7.30;;;;;;;19.55;75.09;99458.54;436521;1254;139561;-61
2023/06/23 20:23:35;;;;;;;8.80;7.00;;;;;;;19.40;75.40;99454.77;436889;1251;139070;-60
2023/06/23 20:33:40;;;;;;;6.90;6.30;;;;;;;19.29;75.30;99483.94;436674;1251;139518;-63
2023/06/23 20:43:43;;;;;;;7.50;6.80;;;;;;;19.17;75.27;99490.48;436198;1254;140158;-62
2023/06/23 20:53:46;;;;;;;8.10;6.10;;;;;;;19.02;75.04;99507.91;436494;1251;139624;-61
2023/06/23 21:03:49;;;;;;;6.20;5.00;;;;;;;18.90;74.79;99528.72;436330;1251;139804;-61
2023/06/23 21:13:52;;;;;;;5.70;5.10;;;;;;;18.81;74.31;99547.20;436209;1251;141314;-61
2023/06/23 21:23:57;;;;;;;5.50;4.90;;;;;;;18.76;73.70;99526.25;436277;1254;143396;-61
2023/06/23 21:34:00;;;;;;;4.70;3.70;;;;;;;18.63;73.15;99520.64;436200;1254;140933;-61
2023/06/23 21:44:03;;;;;;;4.60;3.80;;;;;;;18.50;72.51;99521.02;436192;1254;140528;-64
2023/06/23 21:54:06;;;;;;;4.70;3.80;;;;;;;18.36;72.19;99525.73;436708;1251;139083;-60
2023/06/23 22:04:09;;;;;;;4.60;4.10;;;;;;;18.24;71.88;99540.89;436371;1250;139064;-61
2023/06/23 22:14:16;;;;;;;4.80;3.50;;;;;;;18.15;71.85;99535.35;436309;1254;140661;-61
2023/06/23 22:24:19;;;;;;;7.50;4.40;;;;;;;18.04;71.91;99544.69;436623;1251;140035;-61
2023/06/23 22:34:22;;;;;;;5.60;4.30;;;;;;;17.94;71.89;99557.36;436085;1251;140827;-64
2023/06/23 22:44:25;;;;;;;5.90;3.60;;;;;;;17.87;71.99;99573.21;436326;1251;139782;-61
2023/06/23 22:54:28;;;;;;;4.50;4.00;;;;;;;17.84;71.90;99575.64;436612;1251;138992;-60
2023/06/23 23:04:31;;;;;;;4.60;4.20;;;;;;;17.86;71.76;99585.77;436503;1251;140171;-60
2023/06/23 23:14:36;;;;;;;4.50;3.90;;;;;;;17.85;71.45;99604.27;436384;1254;139514;-60
2023/06/23 23:24:41;;;;;;;7.70;3.90;;;;;;;17.80;71.31;99597.39;436206;1250;140698;-61
2023/06/23 23:34:45;;;;;;;6.40;4.70;;;;;;;17.77;71.31;99596.14;436503;1253;140233;-61
2023/06/23 23:44:48;;;;;;;4.90;4.40;;;;;;;17.71;71.43;99585.35;436260;1253;140247;-60
2023/06/23 23:54:52;;;;;;;7.10;4.70;;;;;;;17.63;72.33;99583.62;436113;1254;140199;-61
